sensor_id;sensor_type;location;lat;lon;timestamp;P1;durP1;ratioP1;P2;durP2;ratioP2
49578;SDS011;35483;50.828;3.228;2022-08-19T00:00:23;26.13;;;17.42;;
49578;SDS011;35483;50.828;3.228;2022-08-19T00:02:49;23.65;;;16.40;;
49578;SDS011;35483;50.828;3.228;2022-08-19T00:05:19;22.17;;;15.55;;
49578;SDS011;35483;50.828;3.228;2022-08-19T00:07:47;23.70;;;15.73;;
49578;SDS011;35483;50.828;3.228;2022-08-19T00:10:16;22.20;;;15.57;;
49578;SDS011;35483;50.828;3.228;2022-08-19T00:12:45;23.73;;;16.30;;
49578;SDS011;35483;50.828;3.228;2022-08-19T00:15:13;23.42;;;15.65;;
49578;SDS011;35483;50.828;3.228;2022-08-19T00:17:43;20.30;;;15.82;;
49578;SDS011;35483;50.828;3.228;2022-08-19T00:20:11;20.23;;;15.27;;
49578;SDS011;35483;50.828;3.228;2022-08-19T00:22:39;18.30;;;15.43;;
49578;SDS011;35483;50.828;3.228;2022-08-19T00:25:06;20.58;;;15.48;;
49578;SDS011;35483;50.828;3.228;2022-08-19T00:27:32;21.60;;;15.25;;
49578;SDS011;35483;50.828;3.228;2022-08-19T00:29:59;24.27;;;16.20;;
49578;SDS011;35483;50.828;3.228;2022-08-19T00:32:25;20.23;;;15.18;;
49578;SDS011;35483;50.828;3.228;2022-08-19T00:34:51;21.27;;;15.20;;
49578;SDS011;35483;50.828;3.228;2022-08-19T00:37:18;22.52;;;14.35;;
49578;SDS011;35483;50.828;3.228;2022-08-19T00:39:48;23.20;;;15.48;;
49578;SDS011;35483;50.828;3.228;2022-08-19T00:42:16;22.02;;;15.63;;
49578;SDS011;35483;50.828;3.228;2022-08-19T00:44:42;20.13;;;14.57;;
49578;SDS011;35483;50.828;3.228;2022-08-19T00:47:09;23.15;;;14.68;;
49578;SDS011;35483;50.828;3.228;2022-08-19T00:49:37;23.77;;;15.23;;
49578;SDS011;35483;50.828;3.228;2022-08-19T00:52:15;23.42;;;14.77;;
49578;SDS011;35483;50.828;3.228;2022-08-19T00:54:57;22.30;;;14.90;;
49578;SDS011;35483;50.828;3.228;2022-08-19T00:57:30;23.95;;;15.50;;
49578;SDS011;35483;50.828;3.228;2022-08-19T01:00:00;21.58;;;15.82;;
49578;SDS011;35483;50.828;3.228;2022-08-19T01:02:28;21.50;;;15.50;;
49578;SDS011;35483;50.828;3.228;2022-08-19T01:04:58;21.40;;;15.02;;
49578;SDS011;35483;50.828;3.228;2022-08-19T01:07:26;20.35;;;15.10;;
49578;SDS011;35483;50.828;3.228;2022-08-19T01:09:53;20.98;;;15.15;;
49578;SDS011;35483;50.828;3.228;2022-08-19T01:14:51;20.52;;;14.77;;
49578;SDS011;35483;50.828;3.228;2022-08-19T01:17:19;21.13;;;14.70;;
49578;SDS011;35483;50.828;3.228;2022-08-19T01:19:49;18.85;;;14.35;;
49578;SDS011;35483;50.828;3.228;2022-08-19T01:24:50;23.52;;;14.40;;
49578;SDS011;35483;50.828;3.228;2022-08-19T01:27:17;18.73;;;13.68;;
49578;SDS011;35483;50.828;3.228;2022-08-19T01:29:43;22.08;;;14.40;;
49578;SDS011;35483;50.828;3.228;2022-08-19T01:32:14;20.05;;;13.30;;
49578;SDS011;35483;50.828;3.228;2022-08-19T01:34:42;17.92;;;13.73;;
49578;SDS011;35483;50.828;3.228;2022-08-19T01:37:11;18.52;;;12.60;;
49578;SDS011;35483;50.828;3.228;2022-08-19T01:39:39;20.80;;;13.10;;
49578;SDS011;35483;50.828;3.228;2022-08-19T01:42:06;19.75;;;13.40;;
49578;SDS011;35483;50.828;3.228;2022-08-19T01:44:36;18.40;;;12.60;;
49578;SDS011;35483;50.828;3.228;2022-08-19T01:47:03;18.38;;;12.70;;
49578;SDS011;35483;50.828;3.228;2022-08-19T01:49:29;18.38;;;12.48;;
49578;SDS011;35483;50.828;3.228;2022-08-19T01:51:59;18.33;;;12.13;;
49578;SDS011;35483;50.828;3.228;2022-08-19T01:54:26;16.77;;;11.82;;
49578;SDS011;35483;50.828;3.228;2022-08-19T01:56:53;18.95;;;12.18;;
49578;SDS011;35483;50.828;3.228;2022-08-19T01:59:24;18.77;;;11.73;;
49578;SDS011;35483;50.828;3.228;2022-08-19T02:01:50;17.38;;;11.65;;
49578;SDS011;35483;50.828;3.228;2022-08-19T02:04:16;19.63;;;11.85;;
49578;SDS011;35483;50.828;3.228;2022-08-19T02:06:41;20.33;;;12.43;;
49578;SDS011;35483;50.828;3.228;2022-08-19T02:09:07;18.83;;;12.35;;
49578;SDS011;35483;50.828;3.228;2022-08-19T02:11:34;18.45;;;11.70;;
49578;SDS011;35483;50.828;3.228;2022-08-19T02:14:03;17.17;;;12.02;;
49578;SDS011;35483;50.828;3.228;2022-08-19T02:16:31;16.63;;;11.65;;
49578;SDS011;35483;50.828;3.228;2022-08-19T02:18:57;17.08;;;10.68;;
49578;SDS011;35483;50.828;3.228;2022-08-19T02:21:26;18.95;;;11.57;;
49578;SDS011;35483;50.828;3.228;2022-08-19T02:23:53;16.35;;;11.23;;
49578;SDS011;35483;50.828;3.228;2022-08-19T02:26:20;17.10;;;10.90;;
49578;SDS011;35483;50.828;3.228;2022-08-19T02:28:46;17.90;;;10.48;;
49578;SDS011;35483;50.828;3.228;2022-08-19T02:33:44;15.25;;;10.30;;
49578;SDS011;35483;50.828;3.228;2022-08-19T02:36:12;16.42;;;10.57;;
49578;SDS011;35483;50.828;3.228;2022-08-19T02:38:42;17.60;;;10.00;;
49578;SDS011;35483;50.828;3.228;2022-08-19T02:41:14;13.85;;;9.90;;
49578;SDS011;35483;50.828;3.228;2022-08-19T02:43:42;17.20;;;10.27;;
49578;SDS011;35483;50.828;3.228;2022-08-19T02:46:14;16.17;;;10.18;;
49578;SDS011;35483;50.828;3.228;2022-08-19T02:48:46;16.58;;;10.65;;
49578;SDS011;35483;50.828;3.228;2022-08-19T02:51:17;17.48;;;9.95;;
49578;SDS011;35483;50.828;3.228;2022-08-19T02:53:45;17.60;;;10.02;;
49578;SDS011;35483;50.828;3.228;2022-08-19T02:56:11;15.98;;;10.38;;
49578;SDS011;35483;50.828;3.228;2022-08-19T02:58:37;15.73;;;10.23;;
49578;SDS011;35483;50.828;3.228;2022-08-19T03:01:05;11.82;;;8.85;;
49578;SDS011;35483;50.828;3.228;2022-08-19T03:03:31;15.93;;;9.70;;
49578;SDS011;35483;50.828;3.228;2022-08-19T03:06:10;13.70;;;9.57;;
49578;SDS011;35483;50.828;3.228;2022-08-19T03:08:38;17.52;;;9.48;;
49578;SDS011;35483;50.828;3.228;2022-08-19T03:11:06;14.43;;;8.98;;
49578;SDS011;35483;50.828;3.228;2022-08-19T03:13:38;17.27;;;10.25;;
49578;SDS011;35483;50.828;3.228;2022-08-19T03:16:04;15.40;;;8.98;;
49578;SDS011;35483;50.828;3.228;2022-08-19T03:18:30;13.60;;;8.60;;
49578;SDS011;35483;50.828;3.228;2022-08-19T03:20:56;18.58;;;9.52;;
49578;SDS011;35483;50.828;3.228;2022-08-19T03:23:23;12.05;;;8.60;;
49578;SDS011;35483;50.828;3.228;2022-08-19T03:25:51;11.90;;;9.02;;
49578;SDS011;35483;50.828;3.228;2022-08-19T03:28:18;10.73;;;8.13;;
49578;SDS011;35483;50.828;3.228;2022-08-19T03:31:03;11.00;;;8.23;;
49578;SDS011;35483;50.828;3.228;2022-08-19T03:33:31;12.82;;;7.82;;
49578;SDS011;35483;50.828;3.228;2022-08-19T03:36:05;11.02;;;8.07;;
49578;SDS011;35483;50.828;3.228;2022-08-19T03:38:32;11.27;;;7.72;;
49578;SDS011;35483;50.828;3.228;2022-08-19T03:41:02;13.02;;;8.48;;
49578;SDS011;35483;50.828;3.228;2022-08-19T03:43:36;15.23;;;7.97;;
49578;SDS011;35483;50.828;3.228;2022-08-19T03:46:05;12.82;;;8.25;;
49578;SDS011;35483;50.828;3.228;2022-08-19T03:48:36;12.95;;;7.90;;
49578;SDS011;35483;50.828;3.228;2022-08-19T03:51:03;12.88;;;8.48;;
49578;SDS011;35483;50.828;3.228;2022-08-19T03:53:30;12.55;;;7.28;;
49578;SDS011;35483;50.828;3.228;2022-08-19T03:55:57;18.88;;;8.15;;
49578;SDS011;35483;50.828;3.228;2022-08-19T03:58:27;13.48;;;8.40;;
49578;SDS011;35483;50.828;3.228;2022-08-19T04:00:57;14.55;;;8.48;;
49578;SDS011;35483;50.828;3.228;2022-08-19T04:03:24;9.57;;;8.35;;
49578;SDS011;35483;50.828;3.228;2022-08-19T04:05:53;16.85;;;8.05;;
49578;SDS011;35483;50.828;3.228;2022-08-19T04:08:18;11.98;;;8.23;;
49578;SDS011;35483;50.828;3.228;2022-08-19T04:10:47;13.50;;;7.90;;
49578;SDS011;35483;50.828;3.228;2022-08-19T04:13:16;14.50;;;8.68;;
49578;SDS011;35483;50.828;3.228;2022-08-19T04:15:43;16.42;;;9.82;;
49578;SDS011;35483;50.828;3.228;2022-08-19T04:18:12;14.77;;;8.80;;
49578;SDS011;35483;50.828;3.228;2022-08-19T04:20:39;14.00;;;9.05;;
49578;SDS011;35483;50.828;3.228;2022-08-19T04:23:07;14.98;;;9.07;;
49578;SDS011;35483;50.828;3.228;2022-08-19T04:25:40;17.70;;;10.23;;
49578;SDS011;35483;50.828;3.228;2022-08-19T04:28:08;16.80;;;9.82;;
49578;SDS011;35483;50.828;3.228;2022-08-19T04:30:43;18.95;;;9.40;;
49578;SDS011;35483;50.828;3.228;2022-08-19T04:33:11;16.10;;;10.50;;
49578;SDS011;35483;50.828;3.228;2022-08-19T04:35:39;18.20;;;10.32;;
49578;SDS011;35483;50.828;3.228;2022-08-19T04:38:08;19.60;;;9.80;;
49578;SDS011;35483;50.828;3.228;2022-08-19T04:40:34;16.65;;;9.55;;
49578;SDS011;35483;50.828;3.228;2022-08-19T04:43:23;14.35;;;9.60;;
49578;SDS011;35483;50.828;3.228;2022-08-19T04:45:49;18.13;;;10.50;;
49578;SDS011;35483;50.828;3.228;2022-08-19T04:48:17;15.60;;;9.73;;
49578;SDS011;35483;50.828;3.228;2022-08-19T04:50:51;15.52;;;9.50;;
49578;SDS011;35483;50.828;3.228;2022-08-19T04:53:23;13.48;;;9.88;;
49578;SDS011;35483;50.828;3.228;2022-08-19T04:55:54;14.57;;;9.98;;
49578;SDS011;35483;50.828;3.228;2022-08-19T04:58:21;15.15;;;10.07;;
49578;SDS011;35483;50.828;3.228;2022-08-19T05:00:49;18.23;;;10.07;;
49578;SDS011;35483;50.828;3.228;2022-08-19T05:03:15;15.55;;;10.23;;
49578;SDS011;35483;50.828;3.228;2022-08-19T05:05:43;19.40;;;10.73;;
49578;SDS011;35483;50.828;3.228;2022-08-19T05:08:13;19.13;;;10.88;;
49578;SDS011;35483;50.828;3.228;2022-08-19T05:10:48;16.92;;;10.85;;
49578;SDS011;35483;50.828;3.228;2022-08-19T05:13:18;17.85;;;10.90;;
49578;SDS011;35483;50.828;3.228;2022-08-19T05:15:53;20.77;;;11.05;;
49578;SDS011;35483;50.828;3.228;2022-08-19T05:18:22;20.60;;;11.02;;
49578;SDS011;35483;50.828;3.228;2022-08-19T05:21:07;17.30;;;11.95;;
49578;SDS011;35483;50.828;3.228;2022-08-19T05:23:56;15.68;;;9.68;;
49578;SDS011;35483;50.828;3.228;2022-08-19T05:26:24;16.92;;;10.40;;
49578;SDS011;35483;50.828;3.228;2022-08-19T05:28:53;16.77;;;10.18;;
49578;SDS011;35483;50.828;3.228;2022-08-19T05:31:19;16.38;;;11.05;;
49578;SDS011;35483;50.828;3.228;2022-08-19T05:33:46;13.85;;;9.77;;
49578;SDS011;35483;50.828;3.228;2022-08-19T05:36:12;18.52;;;11.48;;
49578;SDS011;35483;50.828;3.228;2022-08-19T05:38:42;14.43;;;9.82;;
49578;SDS011;35483;50.828;3.228;2022-08-19T05:41:11;16.73;;;10.75;;
49578;SDS011;35483;50.828;3.228;2022-08-19T05:43:38;14.20;;;10.27;;
49578;SDS011;35483;50.828;3.228;2022-08-19T05:46:05;15.80;;;11.70;;
49578;SDS011;35483;50.828;3.228;2022-08-19T05:48:35;15.55;;;10.38;;
49578;SDS011;35483;50.828;3.228;2022-08-19T05:51:07;17.15;;;10.90;;
49578;SDS011;35483;50.828;3.228;2022-08-19T05:53:35;15.15;;;10.23;;
49578;SDS011;35483;50.828;3.228;2022-08-19T05:56:12;13.35;;;10.30;;
49578;SDS011;35483;50.828;3.228;2022-08-19T05:58:41;14.65;;;9.80;;
49578;SDS011;35483;50.828;3.228;2022-08-19T06:01:13;13.05;;;9.68;;
49578;SDS011;35483;50.828;3.228;2022-08-19T06:03:40;12.90;;;9.13;;
49578;SDS011;35483;50.828;3.228;2022-08-19T06:06:07;12.18;;;8.77;;
49578;SDS011;35483;50.828;3.228;2022-08-19T06:08:34;11.13;;;8.40;;
49578;SDS011;35483;50.828;3.228;2022-08-19T06:14:03;12.13;;;7.93;;
49578;SDS011;35483;50.828;3.228;2022-08-19T06:16:37;10.07;;;7.65;;
49578;SDS011;35483;50.828;3.228;2022-08-19T06:19:06;13.45;;;7.80;;
49578;SDS011;35483;50.828;3.228;2022-08-19T06:21:37;11.98;;;8.45;;
49578;SDS011;35483;50.828;3.228;2022-08-19T06:24:08;13.75;;;8.10;;
49578;SDS011;35483;50.828;3.228;2022-08-19T06:26:37;12.00;;;8.30;;
49578;SDS011;35483;50.828;3.228;2022-08-19T06:29:06;12.40;;;7.85;;
49578;SDS011;35483;50.828;3.228;2022-08-19T06:31:34;12.00;;;7.80;;
49578;SDS011;35483;50.828;3.228;2022-08-19T06:34:02;12.07;;;8.02;;
49578;SDS011;35483;50.828;3.228;2022-08-19T06:36:33;11.85;;;7.72;;
49578;SDS011;35483;50.828;3.228;2022-08-19T06:39:02;11.27;;;7.90;;
49578;SDS011;35483;50.828;3.228;2022-08-19T06:41:30;10.75;;;7.32;;
49578;SDS011;35483;50.828;3.228;2022-08-19T06:43:59;10.60;;;7.05;;
49578;SDS011;35483;50.828;3.228;2022-08-19T06:46:24;10.93;;;6.63;;
49578;SDS011;35483;50.828;3.228;2022-08-19T06:48:52;11.95;;;7.38;;
49578;SDS011;35483;50.828;3.228;2022-08-19T06:51:19;8.80;;;6.97;;
49578;SDS011;35483;50.828;3.228;2022-08-19T06:53:47;10.55;;;6.43;;
49578;SDS011;35483;50.828;3.228;2022-08-19T06:56:16;10.40;;;6.80;;
49578;SDS011;35483;50.828;3.228;2022-08-19T06:58:44;9.57;;;6.57;;
49578;SDS011;35483;50.828;3.228;2022-08-19T07:01:12;10.57;;;6.43;;
49578;SDS011;35483;50.828;3.228;2022-08-19T07:03:38;10.07;;;6.50;;
49578;SDS011;35483;50.828;3.228;2022-08-19T07:06:05;9.38;;;7.13;;
49578;SDS011;35483;50.828;3.228;2022-08-19T07:08:35;9.57;;;6.88;;
49578;SDS011;35483;50.828;3.228;2022-08-19T07:11:02;9.07;;;6.40;;
49578;SDS011;35483;50.828;3.228;2022-08-19T07:13:32;9.52;;;6.32;;
49578;SDS011;35483;50.828;3.228;2022-08-19T07:16:07;8.95;;;6.53;;
49578;SDS011;35483;50.828;3.228;2022-08-19T07:18:35;12.02;;;6.50;;
49578;SDS011;35483;50.828;3.228;2022-08-19T07:21:08;10.30;;;6.57;;
49578;SDS011;35483;50.828;3.228;2022-08-19T07:23:42;9.90;;;6.72;;
49578;SDS011;35483;50.828;3.228;2022-08-19T07:26:09;9.98;;;6.20;;
49578;SDS011;35483;50.828;3.228;2022-08-19T07:28:44;9.38;;;5.97;;
49578;SDS011;35483;50.828;3.228;2022-08-19T07:31:11;8.32;;;5.85;;
49578;SDS011;35483;50.828;3.228;2022-08-19T07:33:38;7.22;;;5.45;;
49578;SDS011;35483;50.828;3.228;2022-08-19T07:36:06;10.20;;;5.10;;
49578;SDS011;35483;50.828;3.228;2022-08-19T07:38:36;8.85;;;5.57;;
49578;SDS011;35483;50.828;3.228;2022-08-19T07:41:04;7.63;;;6.00;;
49578;SDS011;35483;50.828;3.228;2022-08-19T07:43:30;7.60;;;5.53;;
49578;SDS011;35483;50.828;3.228;2022-08-19T07:45:56;8.50;;;5.45;;
49578;SDS011;35483;50.828;3.228;2022-08-19T07:48:23;7.57;;;5.50;;
49578;SDS011;35483;50.828;3.228;2022-08-19T07:50:53;6.88;;;5.05;;
49578;SDS011;35483;50.828;3.228;2022-08-19T07:53:22;6.85;;;5.30;;
49578;SDS011;35483;50.828;3.228;2022-08-19T07:55:49;5.82;;;4.50;;
49578;SDS011;35483;50.828;3.228;2022-08-19T07:58:17;5.72;;;4.70;;
49578;SDS011;35483;50.828;3.228;2022-08-19T08:00:45;5.35;;;4.30;;
49578;SDS011;35483;50.828;3.228;2022-08-19T08:03:14;6.43;;;4.60;;
49578;SDS011;35483;50.828;3.228;2022-08-19T08:05:42;4.93;;;4.43;;
49578;SDS011;35483;50.828;3.228;2022-08-19T08:08:27;6.13;;;4.20;;
49578;SDS011;35483;50.828;3.228;2022-08-19T08:11:05;6.28;;;4.28;;
49578;SDS011;35483;50.828;3.228;2022-08-19T08:13:33;5.20;;;4.07;;
49578;SDS011;35483;50.828;3.228;2022-08-19T08:16:02;4.68;;;3.85;;
49578;SDS011;35483;50.828;3.228;2022-08-19T08:18:30;4.28;;;3.60;;
49578;SDS011;35483;50.828;3.228;2022-08-19T08:20:56;5.55;;;3.60;;
49578;SDS011;35483;50.828;3.228;2022-08-19T08:23:23;5.47;;;3.50;;
49578;SDS011;35483;50.828;3.228;2022-08-19T08:25:51;4.45;;;3.10;;
49578;SDS011;35483;50.828;3.228;2022-08-19T08:28:20;5.18;;;3.00;;
49578;SDS011;35483;50.828;3.228;2022-08-19T08:30:47;3.60;;;3.03;;
49578;SDS011;35483;50.828;3.228;2022-08-19T08:33:14;3.60;;;3.10;;
49578;SDS011;35483;50.828;3.228;2022-08-19T08:35:50;4.40;;;3.70;;
49578;SDS011;35483;50.828;3.228;2022-08-19T08:38:15;5.13;;;3.33;;
49578;SDS011;35483;50.828;3.228;2022-08-19T08:40:53;8.00;;;3.80;;
49578;SDS011;35483;50.828;3.228;2022-08-19T08:43:35;5.07;;;2.90;;
49578;SDS011;35483;50.828;3.228;2022-08-19T08:46:09;7.05;;;3.25;;
49578;SDS011;35483;50.828;3.228;2022-08-19T08:48:48;4.28;;;3.35;;
49578;SDS011;35483;50.828;3.228;2022-08-19T08:51:22;3.78;;;2.97;;
49578;SDS011;35483;50.828;3.228;2022-08-19T08:53:53;3.90;;;3.58;;
49578;SDS011;35483;50.828;3.228;2022-08-19T08:56:22;4.00;;;3.28;;
49578;SDS011;35483;50.828;3.228;2022-08-19T08:59:05;4.70;;;3.30;;
49578;SDS011;35483;50.828;3.228;2022-08-19T09:01:49;3.00;;;2.70;;
49578;SDS011;35483;50.828;3.228;2022-08-19T09:04:15;2.30;;;2.10;;
49578;SDS011;35483;50.828;3.228;2022-08-19T09:14:46;1.40;;;1.30;;
49578;SDS011;35483;50.828;3.228;2022-08-19T09:17:28;1.38;;;1.17;;
49578;SDS011;35483;50.828;3.228;2022-08-19T09:22:48;2.35;;;1.10;;
49578;SDS011;35483;50.828;3.228;2022-08-19T09:25:15;1.73;;;1.00;;
49578;SDS011;35483;50.828;3.228;2022-08-19T09:27:43;1.35;;;1.00;;
49578;SDS011;35483;50.828;3.228;2022-08-19T09:30:16;1.20;;;1.10;;
49578;SDS011;35483;50.828;3.228;2022-08-19T09:32:48;0.90;;;0.80;;
49578;SDS011;35483;50.828;3.228;2022-08-19T09:35:14;0.75;;;0.70;;
49578;SDS011;35483;50.828;3.228;2022-08-19T09:37:40;1.67;;;0.95;;
49578;SDS011;35483;50.828;3.228;2022-08-19T09:40:08;2.08;;;0.98;;
49578;SDS011;35483;50.828;3.228;2022-08-19T09:42:34;0.90;;;0.90;;
49578;SDS011;35483;50.828;3.228;2022-08-19T09:45:00;1.48;;;1.02;;
49578;SDS011;35483;50.828;3.228;2022-08-19T09:47:28;1.38;;;1.08;;
49578;SDS011;35483;50.828;3.228;2022-08-19T09:49:54;1.88;;;1.20;;
49578;SDS011;35483;50.828;3.228;2022-08-19T09:52:20;1.52;;;0.80;;
49578;SDS011;35483;50.828;3.228;2022-08-19T09:54:52;1.42;;;1.15;;
49578;SDS011;35483;50.828;3.228;2022-08-19T09:59:47;1.40;;;0.98;;
49578;SDS011;35483;50.828;3.228;2022-08-19T10:02:13;2.10;;;1.38;;
49578;SDS011;35483;50.828;3.228;2022-08-19T10:04:38;1.23;;;1.10;;
49578;SDS011;35483;50.828;3.228;2022-08-19T10:07:23;1.17;;;0.93;;
49578;SDS011;35483;50.828;3.228;2022-08-19T10:09:49;1.38;;;1.00;;
49578;SDS011;35483;50.828;3.228;2022-08-19T10:12:15;0.70;;;0.70;;
49578;SDS011;35483;50.828;3.228;2022-08-19T10:14:43;1.15;;;0.80;;
49578;SDS011;35483;50.828;3.228;2022-08-19T10:17:09;0.90;;;0.90;;
49578;SDS011;35483;50.828;3.228;2022-08-19T10:19:35;0.98;;;0.93;;
49578;SDS011;35483;50.828;3.228;2022-08-19T10:22:04;0.93;;;0.80;;
49578;SDS011;35483;50.828;3.228;2022-08-19T10:24:32;1.15;;;0.80;;
49578;SDS011;35483;50.828;3.228;2022-08-19T10:26:59;2.45;;;0.80;;
49578;SDS011;35483;50.828;3.228;2022-08-19T10:29:28;2.60;;;0.90;;
49578;SDS011;35483;50.828;3.228;2022-08-19T10:31:57;1.58;;;0.88;;
49578;SDS011;35483;50.828;3.228;2022-08-19T10:34:25;1.40;;;0.95;;
49578;SDS011;35483;50.828;3.228;2022-08-19T10:36:52;2.00;;;0.98;;
49578;SDS011;35483;50.828;3.228;2022-08-19T10:39:18;1.35;;;0.95;;
49578;SDS011;35483;50.828;3.228;2022-08-19T10:41:43;1.90;;;1.02;;
49578;SDS011;35483;50.828;3.228;2022-08-19T10:44:10;2.50;;;0.90;;
49578;SDS011;35483;50.828;3.228;2022-08-19T10:46:38;1.30;;;0.80;;
49578;SDS011;35483;50.828;3.228;2022-08-19T10:49:08;2.35;;;1.00;;
49578;SDS011;35483;50.828;3.228;2022-08-19T10:51:36;1.30;;;0.88;;
49578;SDS011;35483;50.828;3.228;2022-08-19T10:54:22;2.20;;;1.10;;
49578;SDS011;35483;50.828;3.228;2022-08-19T10:56:48;1.80;;;1.30;;
49578;SDS011;35483;50.828;3.228;2022-08-19T10:59:21;1.17;;;1.08;;
49578;SDS011;35483;50.828;3.228;2022-08-19T11:01:49;0.68;;;0.68;;
49578;SDS011;35483;50.828;3.228;2022-08-19T11:04:16;2.15;;;0.75;;
49578;SDS011;35483;50.828;3.228;2022-08-19T11:06:47;0.65;;;0.65;;
49578;SDS011;35483;50.828;3.228;2022-08-19T11:09:14;0.77;;;0.77;;
49578;SDS011;35483;50.828;3.228;2022-08-19T11:11:44;0.77;;;0.60;;
49578;SDS011;35483;50.828;3.228;2022-08-19T11:14:13;1.48;;;0.80;;
49578;SDS011;35483;50.828;3.228;2022-08-19T11:16:40;0.77;;;0.77;;
49578;SDS011;35483;50.828;3.228;2022-08-19T11:19:07;1.85;;;1.17;;
49578;SDS011;35483;50.828;3.228;2022-08-19T11:21:39;1.58;;;1.00;;
49578;SDS011;35483;50.828;3.228;2022-08-19T11:24:13;1.88;;;1.10;;
49578;SDS011;35483;50.828;3.228;2022-08-19T11:29:10;2.15;;;1.70;;
49578;SDS011;35483;50.828;3.228;2022-08-19T11:31:38;2.95;;;1.40;;
49578;SDS011;35483;50.828;3.228;2022-08-19T11:34:06;2.00;;;1.33;;
49578;SDS011;35483;50.828;3.228;2022-08-19T11:36:41;1.23;;;1.13;;
49578;SDS011;35483;50.828;3.228;2022-08-19T11:39:16;1.77;;;1.00;;
49578;SDS011;35483;50.828;3.228;2022-08-19T11:41:43;1.38;;;1.23;;
49578;SDS011;35483;50.828;3.228;2022-08-19T11:44:09;2.47;;;1.20;;
49578;SDS011;35483;50.828;3.228;2022-08-19T11:46:36;1.17;;;1.05;;
49578;SDS011;35483;50.828;3.228;2022-08-19T11:49:03;1.13;;;1.00;;
49578;SDS011;35483;50.828;3.228;2022-08-19T11:51:33;1.90;;;1.02;;
49578;SDS011;35483;50.828;3.228;2022-08-19T11:53:59;2.40;;;1.27;;
49578;SDS011;35483;50.828;3.228;2022-08-19T11:56:26;2.25;;;1.30;;
49578;SDS011;35483;50.828;3.228;2022-08-19T11:58:53;3.17;;;1.35;;
49578;SDS011;35483;50.828;3.228;2022-08-19T12:01:22;2.15;;;1.33;;
49578;SDS011;35483;50.828;3.228;2022-08-19T12:03:49;1.35;;;1.20;;
49578;SDS011;35483;50.828;3.228;2022-08-19T12:06:20;1.92;;;1.55;;
49578;SDS011;35483;50.828;3.228;2022-08-19T12:08:54;2.47;;;1.77;;
49578;SDS011;35483;50.828;3.228;2022-08-19T12:11:26;2.78;;;1.58;;
49578;SDS011;35483;50.828;3.228;2022-08-19T12:13:55;1.98;;;1.30;;
49578;SDS011;35483;50.828;3.228;2022-08-19T12:16:23;2.00;;;1.13;;
49578;SDS011;35483;50.828;3.228;2022-08-19T12:18:52;1.88;;;1.20;;
49578;SDS011;35483;50.828;3.228;2022-08-19T12:21:20;2.33;;;1.25;;
49578;SDS011;35483;50.828;3.228;2022-08-19T12:23:49;2.92;;;1.52;;
49578;SDS011;35483;50.828;3.228;2022-08-19T12:26:16;1.73;;;1.30;;
49578;SDS011;35483;50.828;3.228;2022-08-19T12:28:42;1.77;;;1.30;;
49578;SDS011;35483;50.828;3.228;2022-08-19T12:31:09;2.75;;;1.63;;
49578;SDS011;35483;50.828;3.228;2022-08-19T12:33:39;2.72;;;1.70;;
49578;SDS011;35483;50.828;3.228;2022-08-19T12:36:06;5.70;;;1.90;;
49578;SDS011;35483;50.828;3.228;2022-08-19T12:38:34;3.25;;;1.88;;
49578;SDS011;35483;50.828;3.228;2022-08-19T12:41:00;3.55;;;2.00;;
49578;SDS011;35483;50.828;3.228;2022-08-19T12:43:28;3.00;;;1.67;;
49578;SDS011;35483;50.828;3.228;2022-08-19T12:45:55;2.53;;;1.50;;
49578;SDS011;35483;50.828;3.228;2022-08-19T12:48:21;2.40;;;1.77;;
49578;SDS011;35483;50.828;3.228;2022-08-19T12:50:46;3.55;;;2.22;;
49578;SDS011;35483;50.828;3.228;2022-08-19T12:53:14;2.33;;;1.75;;
49578;SDS011;35483;50.828;3.228;2022-08-19T12:55:41;5.85;;;2.00;;
49578;SDS011;35483;50.828;3.228;2022-08-19T12:58:08;2.40;;;1.80;;
49578;SDS011;35483;50.828;3.228;2022-08-19T13:00:34;3.28;;;2.30;;
49578;SDS011;35483;50.828;3.228;2022-08-19T13:03:01;2.28;;;2.08;;
49578;SDS011;35483;50.828;3.228;2022-08-19T13:05:28;3.78;;;2.15;;
49578;SDS011;35483;50.828;3.228;2022-08-19T13:07:59;4.70;;;2.47;;
49578;SDS011;35483;50.828;3.228;2022-08-19T13:10:30;5.20;;;2.25;;
49578;SDS011;35483;50.828;3.228;2022-08-19T13:13:01;5.70;;;2.17;;
49578;SDS011;35483;50.828;3.228;2022-08-19T13:18:01;3.35;;;1.50;;
49578;SDS011;35483;50.828;3.228;2022-08-19T13:20:27;2.47;;;1.48;;
49578;SDS011;35483;50.828;3.228;2022-08-19T13:22:54;2.33;;;1.20;;
49578;SDS011;35483;50.828;3.228;2022-08-19T13:25:20;1.63;;;1.40;;
49578;SDS011;35483;50.828;3.228;2022-08-19T13:27:47;1.50;;;1.00;;
49578;SDS011;35483;50.828;3.228;2022-08-19T13:30:15;3.25;;;1.17;;
49578;SDS011;35483;50.828;3.228;2022-08-19T13:33:03;2.03;;;0.98;;
49578;SDS011;35483;50.828;3.228;2022-08-19T13:38:11;2.33;;;1.10;;
49578;SDS011;35483;50.828;3.228;2022-08-19T13:40:38;2.47;;;1.10;;
49578;SDS011;35483;50.828;3.228;2022-08-19T13:43:05;2.35;;;1.17;;
49578;SDS011;35483;50.828;3.228;2022-08-19T13:45:32;3.47;;;1.30;;
49578;SDS011;35483;50.828;3.228;2022-08-19T13:47:59;1.60;;;1.08;;
49578;SDS011;35483;50.828;3.228;2022-08-19T13:50:27;2.03;;;1.02;;
49578;SDS011;35483;50.828;3.228;2022-08-19T13:52:56;1.40;;;1.17;;
49578;SDS011;35483;50.828;3.228;2022-08-19T13:55:22;1.20;;;0.90;;
49578;SDS011;35483;50.828;3.228;2022-08-19T13:57:56;1.23;;;0.98;;
49578;SDS011;35483;50.828;3.228;2022-08-19T14:00:23;3.75;;;1.20;;
49578;SDS011;35483;50.828;3.228;2022-08-19T14:02:52;0.80;;;0.80;;
49578;SDS011;35483;50.828;3.228;2022-08-19T14:05:19;1.15;;;0.80;;
49578;SDS011;35483;50.828;3.228;2022-08-19T14:07:46;2.63;;;0.77;;
49578;SDS011;35483;50.828;3.228;2022-08-19T14:10:13;0.95;;;0.85;;
49578;SDS011;35483;50.828;3.228;2022-08-19T14:12:39;1.02;;;0.80;;
49578;SDS011;35483;50.828;3.228;2022-08-19T14:15:06;1.08;;;0.70;;
49578;SDS011;35483;50.828;3.228;2022-08-19T14:17:33;1.88;;;1.10;;
49578;SDS011;35483;50.828;3.228;2022-08-19T14:20:04;1.98;;;1.00;;
49578;SDS011;35483;50.828;3.228;2022-08-19T14:22:35;1.30;;;1.20;;
49578;SDS011;35483;50.828;3.228;2022-08-19T14:25:02;2.00;;;1.00;;
49578;SDS011;35483;50.828;3.228;2022-08-19T14:27:36;2.83;;;1.40;;
49578;SDS011;35483;50.828;3.228;2022-08-19T14:32:33;1.65;;;0.98;;
49578;SDS011;35483;50.828;3.228;2022-08-19T14:35:01;1.55;;;1.13;;
49578;SDS011;35483;50.828;3.228;2022-08-19T14:37:27;2.83;;;1.33;;
49578;SDS011;35483;50.828;3.228;2022-08-19T14:39:53;2.97;;;1.20;;
49578;SDS011;35483;50.828;3.228;2022-08-19T14:42:19;2.20;;;1.00;;
49578;SDS011;35483;50.828;3.228;2022-08-19T14:44:45;2.92;;;1.60;;
49578;SDS011;35483;50.828;3.228;2022-08-19T14:47:11;2.40;;;1.17;;
49578;SDS011;35483;50.828;3.228;2022-08-19T14:49:39;2.88;;;1.05;;
49578;SDS011;35483;50.828;3.228;2022-08-19T14:52:08;1.42;;;1.00;;
49578;SDS011;35483;50.828;3.228;2022-08-19T14:54:34;2.78;;;1.10;;
49578;SDS011;35483;50.828;3.228;2022-08-19T14:57:00;1.67;;;1.20;;
49578;SDS011;35483;50.828;3.228;2022-08-19T14:59:26;1.50;;;1.00;;
49578;SDS011;35483;50.828;3.228;2022-08-19T15:01:51;2.47;;;1.10;;
49578;SDS011;35483;50.828;3.228;2022-08-19T15:04:17;1.83;;;1.17;;
49578;SDS011;35483;50.828;3.228;2022-08-19T15:06:43;1.65;;;1.20;;
49578;SDS011;35483;50.828;3.228;2022-08-19T15:09:09;2.78;;;1.67;;
49578;SDS011;35483;50.828;3.228;2022-08-19T15:11:35;1.55;;;1.45;;
49578;SDS011;35483;50.828;3.228;2022-08-19T15:14:02;1.58;;;1.17;;
49578;SDS011;35483;50.828;3.228;2022-08-19T15:16:27;1.58;;;1.17;;
49578;SDS011;35483;50.828;3.228;2022-08-19T15:18:55;1.27;;;1.00;;
49578;SDS011;35483;50.828;3.228;2022-08-19T15:21:24;2.22;;;1.30;;